Kampville, Missouri
Current Conditions -  °F | °C
As of 10:54 PM on Tuesday 21 Oct 2014 (Local Time) from KSET Reporting Station
Clear Clear  
Wind Chill: 50°   Ceiling: Unl
Heat Index: 50°   Visibility: 10mi
Dew Point: 40°   Wind: 9mph
Humidity: 68%   Direction: 80°E
Pressure: 30.2"   Gusts: NA
Location:  38.8615°N, 90.4548°W
Report Text: KSET 220354Z AUTO 08008KT 10SM CLR 10/04 A3020 RMK AO2 SLP226 T01000044 $
Loading
Personal Weather Stations






























Interactive Weather Map
Tropical Storm Tracking
New forecast layout! Learn more

10-Day Weather Forecast

Advertisements
Track Severe Weather on mobile